Terminal Aerodrome Forecast
Issued by NWS

Home | Current Version | Previous Version | Text Only | Print | Product List | Glossary On
Versions: 1 2 3 4 5 6 7 8 9 10 11 12 13
000
FTUS42 KMLB 250500
TAFISM
TAF
KISM 250520Z 2506/2606 34005KT P6SM FEW045
     FM251600 36010KT P6SM SCT035
     FM260000 01006KT P6SM SKC
      AMD NOT SKED TIL 251100=

USA.gov is the U.S. government's official web portal to all federal, state and local government web resources and services.